Weather History for KDUX - February, 2012

Change the Weather History Date:

Wednesday, February 8, 2012

  Actual Average (KBGD) Record (KBGD)
Temperature  
Mean Temperature 32 °F 41 °F  
Max Temperature 51 °F 54 °F 81 °F (1957)
Min Temperature 12 °F 28 °F 0 °F (2011)
Degree Days  
Heating Degree Days 34 24  
Month to date heating degree days 195  
Since 1 July heating degree days 2547  
Cooling Degree Days 0 0  
Month to date cooling degree days 0  
Year to date cooling degree days 0  
Moisture  
Dew Point 21 °F    
Average Humidity 77    
Maximum Humidity 100    
Minimum Humidity 41    
Precipitation  
Precipitation 0.00 in 0.03 in 0.83 in (1980)
Month to date precipitation 0.20  
Year to date precipitation 0.79  
Snow  
Snow 0.00 in - 6.50 in (1980)
Month to date snowfall  
Since 1 July snowfall  
Snow Depth -    
Sea Level Pressure  
Sea Level Pressure 30.30 in    
Wind  
Wind Speed 7 mph (SSW)    
Max Wind Speed 17 mph    
Max Gust Speed 21 mph    
Visibility 9 miles    
Events      
T = Trace of Precipitation, MM = Missing Value Source: NWS Daily Summary

Daily Weather History Graph

Daily Weather History Graph

Search for Another Location

Airport or City:

Trip Planner

Search our weather history database for the weather conditions in past years. The results will help you decide how hot, cold, wet, or windy it might be!

Date:

Astronomy

Feb. 08, 2012 Rise Set
Actual Time 7:42 AM CST 6:22 PM CST
Civil Twilight 7:16 AM CST 6:48 PM CST
Nautical Twilight 6:45 AM CST 7:18 PM CST
Astronomical Twilight 6:16 AM CST 7:48 PM CST
Moon 7:39 PM CST (2/8) 7:50 AM CST (2/8)
Length of Visible Light 11h 32m
Length of Day
10h 39m
Full, 99% of the Moon is Illuminated
Feb 8
Full
Feb 14
Last Quarter
Feb 21
New
Feb 29
First Quarter
Mar 8
Full

Hourly Weather History & Observations

Time (CST) Temp. Windchill Dew Point Humidity Pressure Visibility Wind Dir Wind Speed Gust Speed Precip Events Conditions
12:15 AM 17.6 °F 10.7 °F 14.0 °F 86% 30.43 in 10.0 mi WNW 4.6 mph - N/A   Clear
12:35 AM 17.6 °F 12.3 °F 14.0 °F 86% 30.42 in 10.0 mi NNW 3.5 mph - N/A   Clear
12:55 AM 17.6 °F 12.3 °F 12.2 °F 79% 30.42 in 10.0 mi WNW 3.5 mph - N/A   Clear
1:15 AM 14.0 °F 5.1 °F 12.2 °F 93% 30.43 in 10.0 mi West 5.8 mph - N/A   Clear
1:35 AM 15.8 °F 10.2 °F 12.2 °F 86% 30.41 in 10.0 mi WNW 3.5 mph - N/A   Clear
1:55 AM 14.0 °F 5.1 °F 10.4 °F 86% 30.41 in 10.0 mi West 5.8 mph - N/A   Clear
2:15 AM 14.0 °F 5.1 °F 12.2 °F 93% 30.40 in 10.0 mi NNW 5.8 mph - N/A   Clear
2:35 AM 14.0 °F 6.5 °F 12.2 °F 93% 30.40 in 10.0 mi WNW 4.6 mph - N/A   Clear
2:55 AM 14.0 °F 5.1 °F 12.2 °F 93% 30.40 in 10.0 mi West 5.8 mph - N/A   Clear
3:15 AM 12.2 °F 2.9 °F 10.4 °F 92% 30.40 in 10.0 mi West 5.8 mph - N/A   Clear
3:35 AM 14.0 °F 5.1 °F 10.4 °F 86% 30.40 in 10.0 mi West 5.8 mph - N/A   Clear
3:55 AM 14.0 °F 3.9 °F 10.4 °F 86% 30.40 in 10.0 mi West 6.9 mph - N/A   Clear
4:15 AM 14.0 °F 3.9 °F 10.4 °F 86% 30.40 in 10.0 mi West 6.9 mph - N/A   Clear
4:35 AM 14.0 °F 6.5 °F 12.2 °F 93% 30.39 in 10.0 mi West 4.6 mph - N/A   Clear
4:55 AM 14.0 °F 8.2 °F 10.4 °F 86% 30.39 in 10.0 mi West 3.5 mph - N/A   Clear
5:15 AM 14.0 °F 8.2 °F 10.4 °F 86% 30.38 in 10.0 mi West 3.5 mph - N/A   Clear
5:35 AM 12.2 °F 2.9 °F 10.4 °F 92% 30.38 in 10.0 mi WSW 5.8 mph - N/A   Clear
5:55 AM 14.0 °F 5.1 °F 12.2 °F 93% 30.37 in 10.0 mi SW 5.8 mph - N/A   Clear
6:15 AM 14.0 °F 3.9 °F 12.2 °F 93% 30.38 in 7.0 mi SW 6.9 mph - N/A   Clear
6:35 AM 14.0 °F 5.1 °F 12.2 °F 93% 30.37 in 7.0 mi SSW 5.8 mph - N/A   Clear
6:55 AM 15.8 °F 7.2 °F 14.0 °F 93% 30.37 in 7.0 mi SSW 5.8 mph - N/A   Clear
7:15 AM 15.8 °F 6.1 °F 14.0 °F 93% 30.37 in 7.0 mi SSW 6.9 mph - N/A   Clear
7:35 AM 15.8 °F 7.2 °F 14.0 °F 93% 30.36 in 7.0 mi South 5.8 mph - N/A   Clear
7:55 AM 15.8 °F 5.1 °F 14.0 °F 93% 30.36 in 5.0 mi South 8.1 mph - N/A   Clear
8:15 AM 17.6 °F 6.4 °F 17.6 °F 100% 30.36 in 5.0 mi South 9.2 mph - N/A   Clear
8:35 AM 19.4 °F 10.4 °F 17.6 °F 93% 30.36 in 7.0 mi South 6.9 mph - N/A   Clear
8:55 AM 21.2 °F 12.6 °F 19.4 °F 93% 30.36 in 7.0 mi SSW 6.9 mph - N/A   Clear
9:15 AM 23.0 °F 13.9 °F 21.2 °F 93% 30.36 in 10.0 mi SSW 8.1 mph - N/A   Clear
9:35 AM 26.6 °F 19.1 °F 23.0 °F 86% 30.36 in 7.0 mi SSW 6.9 mph - N/A   Clear
10:15 AM 30.2 °F 21.3 °F 24.8 °F 80% 30.35 in 10.0 mi SW 10.4 mph - N/A   Clear
10:35 AM 30.2 °F 22.6 °F 24.8 °F 80% 30.35 in 10.0 mi SW 8.1 mph - N/A   Clear
10:55 AM 32.0 °F 23.0 °F 26.6 °F 80% 30.35 in 10.0 mi SW 11.5 mph - N/A   Clear
11:15 AM 32.0 °F 23.0 °F 24.8 °F 75% 30.34 in 10.0 mi SSW 11.5 mph - N/A   Clear
11:35 AM 32.0 °F 23.6 °F 26.6 °F 80% 30.33 in 10.0 mi SSW 10.4 mph - N/A   Clear
11:55 AM 32.0 °F 23.0 °F 26.6 °F 80% 30.32 in 10.0 mi SSW 11.5 mph - N/A   Clear
12:15 PM 33.8 °F 24.8 °F 26.6 °F 75% 30.31 in 10.0 mi SSW 12.7 mph 17.3 mph N/A   Clear
12:35 PM 35.6 °F 26.2 °F 26.6 °F 70% 30.30 in 10.0 mi SSW 15.0 mph - N/A   Clear
12:55 PM 35.6 °F 26.2 °F 26.6 °F 70% 30.28 in 10.0 mi South 15.0 mph 20.7 mph N/A   Clear
1:15 PM 35.6 °F 26.6 °F 28.4 °F 75% 30.26 in 10.0 mi South 13.8 mph - N/A   Clear
1:35 PM 37.4 °F 28.5 °F 28.4 °F 70% 30.24 in 10.0 mi South 15.0 mph - N/A   Clear
1:55 PM 41.0 °F 32.8 °F 28.4 °F 61% 30.22 in 10.0 mi South 16.1 mph - N/A   Clear
2:15 PM 42.8 °F 34.8 °F 28.4 °F 57% 30.21 in 10.0 mi South 17.3 mph 20.7 mph N/A   Clear
2:35 PM 44.6 °F 38.1 °F 28.4 °F 53% 30.20 in 10.0 mi South 13.8 mph - N/A   Clear
2:55 PM 44.6 °F 37.8 °F 28.4 °F 53% 30.19 in 10.0 mi South 15.0 mph - N/A   Clear
3:15 PM 46.4 °F 39.8 °F 28.4 °F 50% 30.18 in 10.0 mi South 16.1 mph - N/A   Clear
3:35 PM 48.2 °F - 28.4 °F 46% 30.17 in 10.0 mi South 13.8 mph 17.3 mph N/A   Clear
3:55 PM 50.0 °F - 28.4 °F 43% 30.16 in 10.0 mi SSW 13.8 mph - N/A   Clear
4:15 PM 50.0 °F - 28.4 °F 43% 30.15 in 10.0 mi SSW 12.7 mph - N/A   Clear
4:35 PM 51.8 °F - 28.4 °F 41% 30.15 in 10.0 mi SSW 15.0 mph - N/A   Clear
4:55 PM 51.8 °F - 28.4 °F 41% 30.14 in 10.0 mi SSW 15.0 mph - N/A   Clear
5:15 PM 51.8 °F - 28.4 °F 41% 30.13 in 10.0 mi South 15.0 mph - N/A   Clear
5:35 PM 50.0 °F - 28.4 °F 43% 30.13 in 10.0 mi South 10.4 mph - N/A   Clear
5:55 PM 48.2 °F - 30.2 °F 50% 30.12 in 10.0 mi South 10.4 mph - N/A   Clear
6:15 PM 44.6 °F 39.7 °F 30.2 °F 57% 30.12 in 10.0 mi SSE 9.2 mph - N/A   Clear
6:35 PM 41.0 °F 36.4 °F 28.4 °F 61% 30.13 in 10.0 mi SSE 6.9 mph - N/A   Clear
6:55 PM 39.2 °F 32.5 °F 30.2 °F 70% 30.12 in 10.0 mi SSE 10.4 mph - N/A   Clear
7:15 PM 39.2 °F 33.0 °F 30.2 °F 70% 30.13 in 10.0 mi SSE 9.2 mph - N/A   Clear
7:35 PM 37.4 °F 30.8 °F 30.2 °F 75% 30.13 in 10.0 mi SSE 9.2 mph - N/A   Clear
7:55 PM 37.4 °F 31.4 °F 28.4 °F 70% 30.14 in 10.0 mi SSE 8.1 mph - N/A   Clear
8:15 PM 35.6 °F 28.0 °F 28.4 °F 75% 30.14 in 10.0 mi SSE 10.4 mph - N/A   Clear
8:35 PM 35.6 °F 28.0 °F 28.4 °F 75% 30.14 in 10.0 mi SSE 10.4 mph - N/A   Clear
8:55 PM 35.6 °F 28.0 °F 28.4 °F 75% 30.14 in 10.0 mi SSE 10.4 mph - N/A   Clear
9:15 PM 35.6 °F 28.0 °F 28.4 °F 75% 30.14 in 10.0 mi SSE 10.4 mph - N/A   Clear
9:35 PM 35.6 °F 28.0 °F 28.4 °F 75% 30.13 in 10.0 mi SSE 10.4 mph - N/A   Clear
9:55 PM 35.6 °F 28.6 °F 28.4 °F 75% 30.14 in 10.0 mi SSE 9.2 mph - N/A   Clear
10:15 PM 35.6 °F 27.5 °F 28.4 °F 75% 30.13 in 10.0 mi SSE 11.5 mph - N/A   Clear
10:35 PM 35.6 °F 28.6 °F 28.4 °F 75% 30.13 in 10.0 mi SSE 9.2 mph - N/A   Clear
10:55 PM 33.8 °F 27.0 °F 28.4 °F 81% 30.13 in 10.0 mi SE 8.1 mph - N/A   Clear
11:15 PM 33.8 °F 27.0 °F 28.4 °F 81% 30.13 in 10.0 mi SE 8.1 mph - N/A   Clear
11:35 PM 33.8 °F 27.0 °F 28.4 °F 81% 30.12 in 10.0 mi SE 8.1 mph - N/A   Clear
11:55 PM 32.0 °F 24.8 °F 28.4 °F 87% 30.12 in 10.0 mi SE 8.1 mph - N/A   Clear